Time;durP1;ratioP1;P1;durP2;ratioP2;P2;SDS_P1;SDS_P2;PMS_P1;PMS_P2;Temp;Humidity;BMP_temperature;BMP_pressure;BME280_temperature;BME280_humidity;BME280_pressure;Samples;Min_cycle;Max_cycle;Signal;HPM_P1;HPM_P2
2022/08/21 00:02:18;;;;;;;8.23;3.30;;;16.20;99.90;;;;;;4993572;28;20381;-88
2022/08/21 00:04:45;;;;;;;6.18;3.03;;;16.20;99.90;;;;;;5027048;28;20036;-88
2022/08/21 00:07:11;;;;;;;10.50;3.58;;;16.20;99.90;;;;;;4999485;28;20095;-88
2022/08/21 00:09:37;;;;;;;7.63;3.50;;;16.10;99.90;;;;;;5012569;28;20028;-88
2022/08/21 00:12:04;;;;;;;7.18;3.78;;;16.00;99.90;;;;;;5027925;28;20072;-88
2022/08/21 00:14:30;;;;;;;6.20;3.70;;;16.00;99.90;;;;;;5027962;28;20041;-87
2022/08/21 00:16:56;;;;;;;8.15;4.05;;;16.00;99.90;;;;;;5012667;28;20127;-88
2022/08/21 00:19:24;;;;;;;10.15;3.88;;;15.90;99.90;;;;;;5012121;28;20121;-88
2022/08/21 00:21:51;;;;;;;7.78;3.78;;;15.80;99.90;;;;;;4996648;28;20418;-87
2022/08/21 00:24:18;;;;;;;6.72;3.88;;;15.70;99.90;;;;;;5011339;28;20051;-87
2022/08/21 00:26:44;;;;;;;8.43;3.85;;;15.60;99.90;;;;;;5011844;28;20086;-88
2022/08/21 00:29:10;;;;;;;5.85;4.07;;;15.60;99.90;;;;;;5012587;28;20402;-88
2022/08/21 00:31:36;;;;;;;11.38;4.35;;;15.50;99.90;;;;;;5005699;28;20048;-87
2022/08/21 00:34:02;;;;;;;7.28;4.28;;;15.50;99.90;;;;;;5016530;28;20041;-86
2022/08/21 00:36:28;;;;;;;8.60;4.25;;;15.50;99.90;;;;;;5019773;28;20385;-87
2022/08/21 00:38:54;;;;;;;9.10;3.97;;;15.50;99.90;;;;;;5012855;28;20264;-87
2022/08/21 00:41:20;;;;;;;8.77;4.38;;;15.50;99.90;;;;;;4995940;28;20037;-87
2022/08/21 00:43:46;;;;;;;7.43;4.00;;;15.50;99.90;;;;;;4979511;28;20032;-87
2022/08/21 00:46:11;;;;;;;9.52;4.30;;;15.50;99.90;;;;;;4996366;28;20046;-87
2022/08/21 00:48:37;;;;;;;4.68;4.05;;;15.50;99.90;;;;;;4994465;28;20089;-88
2022/08/21 00:51:08;;;;;;;7.35;4.43;;;15.50;99.90;;;;;;4995837;28;20047;-88
2022/08/21 00:53:37;;;;;;;10.02;4.15;;;15.40;99.90;;;;;;5026475;28;20398;-87
2022/08/21 00:56:06;;;;;;;8.10;4.13;;;15.40;99.90;;;;;;5027999;28;20037;-87
2022/08/21 00:58:32;;;;;;;9.52;4.47;;;15.40;99.90;;;;;;5010183;28;20793;-88
2022/08/21 01:01:01;;;;;;;12.40;5.13;;;15.40;99.90;;;;;;4981783;28;20111;-87
2022/08/21 01:03:27;;;;;;;11.27;5.55;;;15.40;99.90;;;;;;5025807;28;20075;-88
2022/08/21 01:05:54;;;;;;;8.40;5.05;;;15.40;99.90;;;;;;5010115;28;20075;-87
2022/08/21 01:08:20;;;;;;;12.05;5.45;;;15.40;99.90;;;;;;5031601;28;20068;-86
2022/08/21 01:10:47;;;;;;;7.88;5.13;;;15.30;99.90;;;;;;5019684;28;20048;-87
2022/08/21 01:13:18;;;;;;;9.00;5.50;;;15.40;99.90;;;;;;5051287;28;20057;-88
2022/08/21 01:15:47;;;;;;;14.00;5.43;;;15.30;99.90;;;;;;5020296;28;20056;-87
2022/08/21 01:18:14;;;;;;;9.90;5.88;;;15.40;99.90;;;;;;5011969;28;20032;-88
2022/08/21 01:20:45;;;;;;;10.93;6.20;;;15.30;99.90;;;;;;4996705;28;20511;-88
2022/08/21 01:23:11;;;;;;;10.77;6.25;;;15.30;99.90;;;;;;5026717;28;20064;-88
2022/08/21 01:25:37;;;;;;;8.95;5.63;;;15.30;99.90;;;;;;5009771;28;20398;-87
2022/08/21 01:28:13;;;;;;;11.30;6.22;;;15.30;99.90;;;;;;5028468;28;20507;-88
2022/08/21 01:30:41;;;;;;;16.48;5.88;;;15.30;99.90;;;;;;5044152;28;20477;-88
2022/08/21 01:33:07;;;;;;;12.18;6.60;;;15.40;99.90;;;;;;5027299;28;20056;-88
2022/08/21 01:35:33;;;;;;;12.10;6.15;;;15.30;99.90;;;;;;4993672;28;20037;-88
2022/08/21 01:37:59;;;;;;;9.27;6.00;;;15.30;99.90;;;;;;4995127;28;20127;-88
2022/08/21 01:40:25;;;;;;;10.80;6.35;;;15.30;99.90;;;;;;5011143;28;20140;-88
2022/08/21 01:42:50;;;;;;;12.93;7.20;;;15.30;99.90;;;;;;5005663;28;20036;-88
2022/08/21 01:45:16;;;;;;;11.15;7.30;;;15.30;99.90;;;;;;5010683;28;20047;-88
2022/08/21 01:47:43;;;;;;;9.85;6.13;;;15.30;99.90;;;;;;5002266;28;20142;-88
2022/08/21 01:50:13;;;;;;;12.30;7.38;;;15.20;99.90;;;;;;5036389;28;20025;-87
2022/08/21 01:52:39;;;;;;;12.77;7.47;;;15.20;99.90;;;;;;5046437;28;20025;-88
2022/08/21 01:55:08;;;;;;;11.27;7.20;;;15.20;99.90;;;;;;5038067;28;20096;-87
2022/08/21 01:57:34;;;;;;;11.18;6.93;;;15.10;99.90;;;;;;5054348;28;20013;-88
2022/08/21 02:00:00;;;;;;;16.08;8.15;;;15.10;99.90;;;;;;5038015;28;20126;-87
2022/08/21 02:02:26;;;;;;;15.35;7.35;;;15.10;99.90;;;;;;5027258;28;20124;-87
2022/08/21 02:04:51;;;;;;;14.73;7.82;;;15.00;99.90;;;;;;5026059;28;20474;-88
2022/08/21 02:07:18;;;;;;;13.32;7.40;;;15.00;99.90;;;;;;4994329;28;20242;-87
2022/08/21 02:09:44;;;;;;;14.18;7.75;;;15.00;99.90;;;;;;5010644;28;20043;-88
2022/08/21 02:12:11;;;;;;;12.52;7.50;;;15.00;99.90;;;;;;5006812;28;20041;-87
2022/08/21 02:14:36;;;;;;;9.95;7.57;;;15.00;99.90;;;;;;4994616;28;20043;-88
2022/08/21 02:17:03;;;;;;;11.60;8.10;;;14.90;99.90;;;;;;4995267;28;20165;-88
2022/08/21 02:19:29;;;;;;;14.55;8.00;;;14.90;99.90;;;;;;5026420;28;20160;-87
2022/08/21 02:21:55;;;;;;;15.00;9.13;;;14.90;99.90;;;;;;5011416;28;20123;-88
2022/08/21 02:24:20;;;;;;;13.05;9.82;;;14.90;99.90;;;;;;5009009;28;20037;-88
2022/08/21 02:26:46;;;;;;;15.05;9.88;;;14.90;99.90;;;;;;4995489;28;20056;-87
2022/08/21 02:29:12;;;;;;;14.02;8.82;;;14.90;99.90;;;;;;5012546;28;20041;-87
2022/08/21 02:31:38;;;;;;;18.27;9.65;;;15.00;99.90;;;;;;5011259;28;20494;-87
2022/08/21 02:34:04;;;;;;;12.75;9.13;;;15.00;99.90;;;;;;5031295;28;20033;-88
2022/08/21 02:36:29;;;;;;;14.52;9.68;;;15.00;99.90;;;;;;5029958;28;20051;-88
2022/08/21 02:38:55;;;;;;;11.52;9.27;;;14.90;99.90;;;;;;5010266;28;20045;-88
2022/08/21 02:41:22;;;;;;;14.35;8.82;;;14.90;99.90;;;;;;5011276;28;20041;-87
2022/08/21 02:43:48;;;;;;;15.65;9.13;;;14.90;99.90;;;;;;5030708;28;20485;-87
2022/08/21 02:46:16;;;;;;;12.88;9.32;;;14.90;99.90;;;;;;5027189;28;20037;-88
2022/08/21 02:48:42;;;;;;;12.85;9.50;;;14.90;99.90;;;;;;5030523;28;20080;-88
2022/08/21 02:51:12;;;;;;;16.88;9.68;;;14.90;99.90;;;;;;5028165;28;20064;-87
2022/08/21 02:53:38;;;;;;;17.52;9.90;;;14.80;99.90;;;;;;5029890;28;20033;-87
2022/08/21 02:56:07;;;;;;;15.65;8.60;;;14.80;99.90;;;;;;5011222;28;20056;-88
2022/08/21 02:58:35;;;;;;;15.30;9.77;;;14.80;99.90;;;;;;4997423;28;20040;-88
2022/08/21 03:01:02;;;;;;;16.67;9.00;;;14.80;99.90;;;;;;5013425;28;20101;-88
2022/08/21 03:03:29;;;;;;;14.15;9.80;;;14.80;99.90;;;;;;5014055;28;20040;-88
2022/08/21 03:05:55;;;;;;;12.52;9.15;;;14.80;99.90;;;;;;5028626;28;20033;-88
2022/08/21 03:08:21;;;;;;;17.13;9.52;;;14.70;99.90;;;;;;5015076;28;20064;-87
2022/08/21 03:10:50;;;;;;;17.48;9.95;;;14.80;99.90;;;;;;5013184;28;20044;-87
2022/08/21 03:13:16;;;;;;;15.15;9.02;;;14.70;99.90;;;;;;5014016;28;20072;-87
2022/08/21 03:15:42;;;;;;;14.40;9.50;;;14.70;99.90;;;;;;5029624;28;20132;-87
2022/08/21 03:18:09;;;;;;;13.60;9.93;;;14.70;99.90;;;;;;5014861;28;20588;-88
2022/08/21 03:20:36;;;;;;;17.08;9.38;;;14.70;99.90;;;;;;5013507;28;20124;-87
2022/08/21 03:23:03;;;;;;;14.15;9.43;;;14.60;99.90;;;;;;5029948;28;20111;-88
2022/08/21 03:25:33;;;;;;;17.75;10.13;;;14.60;99.90;;;;;;5013007;28;20091;-87
2022/08/21 03:28:04;;;;;;;16.80;9.90;;;14.60;99.90;;;;;;5027084;28;20120;-88
2022/08/21 03:30:33;;;;;;;13.65;9.65;;;14.60;99.90;;;;;;5029307;28;20386;-88
2022/08/21 03:32:59;;;;;;;13.50;9.68;;;14.60;99.90;;;;;;5012067;28;20124;-88
2022/08/21 03:35:27;;;;;;;14.00;9.55;;;14.50;99.90;;;;;;5013903;28;20068;-87
2022/08/21 03:37:54;;;;;;;14.25;8.75;;;14.50;99.90;;;;;;5027759;28;20444;-88
2022/08/21 03:40:21;;;;;;;14.85;10.05;;;14.50;99.90;;;;;;4996226;28;20755;-88
2022/08/21 03:42:47;;;;;;;18.95;10.57;;;14.50;99.90;;;;;;5026152;28;20068;-88
2022/08/21 03:45:15;;;;;;;16.30;9.77;;;14.50;99.90;;;;;;5015413;28;20067;-87
2022/08/21 03:47:58;;;;;;;13.80;9.45;;;14.50;99.90;;;;;;4993616;28;20112;-88
2022/08/21 03:50:32;;;;;;;15.98;10.75;;;14.50;99.90;;;;;;5014581;28;20044;-87
2022/08/21 03:52:58;;;;;;;14.10;8.93;;;14.50;99.90;;;;;;5023457;28;20095;-88
2022/08/21 03:55:25;;;;;;;13.38;9.77;;;14.50;99.90;;;;;;5013315;28;20033;-88
2022/08/21 03:57:51;;;;;;;16.90;10.35;;;14.40;99.90;;;;;;5005390;28;20501;-88
2022/08/21 04:00:19;;;;;;;14.50;9.57;;;14.40;99.90;;;;;;5030724;28;20076;-87
2022/08/21 04:02:45;;;;;;;13.35;9.63;;;14.40;99.90;;;;;;5016156;28;20064;-88
2022/08/21 04:05:13;;;;;;;13.40;9.82;;;14.30;99.90;;;;;;5033065;28;20049;-88
2022/08/21 04:07:38;;;;;;;15.80;9.57;;;14.40;99.90;;;;;;5014291;28;20044;-87
2022/08/21 04:10:06;;;;;;;13.38;9.57;;;14.40;99.90;;;;;;5034384;28;20041;-88
2022/08/21 04:12:31;;;;;;;16.00;9.77;;;14.40;99.90;;;;;;4982469;28;20120;-88
2022/08/21 04:14:57;;;;;;;14.65;9.85;;;14.30;99.90;;;;;;5050192;28;20112;-88
2022/08/21 04:17:23;;;;;;;14.00;9.68;;;14.40;99.90;;;;;;5016007;28;20430;-88
2022/08/21 04:19:49;;;;;;;19.73;10.48;;;14.30;99.90;;;;;;5012445;28;20048;-85
2022/08/21 04:22:16;;;;;;;16.30;9.93;;;14.30;99.90;;;;;;5012033;28;20048;-76
2022/08/21 04:24:41;;;;;;;15.93;10.18;;;14.30;99.90;;;;;;5043183;28;20037;-76
2022/08/21 04:27:07;;;;;;;15.82;8.88;;;14.30;99.90;;;;;;5007623;28;20402;-76
2022/08/21 04:29:33;;;;;;;13.27;9.50;;;14.30;99.90;;;;;;5029007;28;20037;-76
2022/08/21 04:31:59;;;;;;;15.43;9.82;;;14.30;99.90;;;;;;5011435;28;20057;-76
2022/08/21 04:34:25;;;;;;;12.95;9.45;;;14.30;99.90;;;;;;5026146;28;20076;-76
2022/08/21 04:36:50;;;;;;;13.98;9.63;;;14.20;99.90;;;;;;5025934;28;20071;-76
2022/08/21 04:39:16;;;;;;;13.18;9.52;;;14.20;99.90;;;;;;5010209;28;20041;-76
2022/08/21 04:41:42;;;;;;;11.55;9.40;;;14.20;99.90;;;;;;5024195;28;20079;-76
2022/08/21 04:44:08;;;;;;;13.23;9.32;;;14.20;99.90;;;;;;4994656;28;20038;-76
2022/08/21 04:46:34;;;;;;;13.45;9.93;;;14.30;99.90;;;;;;5031088;28;20094;-76
2022/08/21 04:49:00;;;;;;;13.80;9.32;;;14.30;99.90;;;;;;4999446;28;20037;-76
2022/08/21 04:51:29;;;;;;;13.05;9.25;;;14.30;99.90;;;;;;5008187;28;20068;-76
2022/08/21 04:54:00;;;;;;;13.75;9.27;;;14.30;99.90;;;;;;5010476;28;20098;-76
2022/08/21 04:56:34;;;;;;;13.30;9.10;;;14.30;99.90;;;;;;5025984;28;20102;-75
2022/08/21 04:59:04;;;;;;;13.57;8.95;;;14.30;99.90;;;;;;5010941;28;20072;-76
2022/08/21 05:01:34;;;;;;;14.45;8.98;;;14.30;99.90;;;;;;5027516;28;20520;-76
2022/08/21 05:04:01;;;;;;;14.32;8.35;;;14.30;99.90;;;;;;5028358;28;20037;-76
2022/08/21 05:06:29;;;;;;;12.85;8.77;;;14.30;99.90;;;;;;5012461;28;20036;-76
2022/08/21 05:08:56;;;;;;;14.68;8.32;;;14.30;99.90;;;;;;5025895;28;20119;-76
2022/08/21 05:11:22;;;;;;;13.13;9.32;;;14.30;99.90;;;;;;5011253;28;20160;-76
2022/08/21 05:13:48;;;;;;;11.15;8.35;;;14.40;99.90;;;;;;4994040;28;20116;-76
2022/08/21 05:16:15;;;;;;;13.15;7.68;;;14.40;99.90;;;;;;5010413;28;20426;-76
2022/08/21 05:18:41;;;;;;;12.45;8.10;;;14.40;99.90;;;;;;5009133;28;20037;-76
2022/08/21 05:21:07;;;;;;;11.00;7.25;;;14.50;99.90;;;;;;5011689;28;20068;-76
2022/08/21 05:23:33;;;;;;;9.55;7.00;;;14.50;99.90;;;;;;5026767;28;20079;-76
2022/08/21 05:26:00;;;;;;;12.00;7.57;;;14.60;99.90;;;;;;5010131;28;20041;-76
2022/08/21 05:28:26;;;;;;;11.65;7.00;;;14.60;99.90;;;;;;5026702;28;20116;-76
2022/08/21 05:30:52;;;;;;;12.13;6.90;;;14.70;99.90;;;;;;5011819;28;20040;-76
2022/08/21 05:33:18;;;;;;;10.55;6.68;;;14.70;99.90;;;;;;5019711;28;20456;-76
2022/08/21 05:35:43;;;;;;;9.23;6.43;;;14.80;99.90;;;;;;5023041;28;20494;-76
2022/08/21 05:38:09;;;;;;;10.95;6.93;;;14.80;99.90;;;;;;5026428;28;20043;-76
2022/08/21 05:40:35;;;;;;;12.45;6.90;;;14.90;99.90;;;;;;5007962;28;20044;-76
2022/08/21 05:43:01;;;;;;;9.65;6.43;;;14.90;99.90;;;;;;5008731;28;20094;-76
2022/08/21 05:45:30;;;;;;;9.48;5.97;;;15.00;99.90;;;;;;5025005;28;20518;-76
2022/08/21 05:47:56;;;;;;;9.45;5.65;;;15.10;99.90;;;;;;5024417;28;20486;-76
2022/08/21 05:50:22;;;;;;;10.10;5.53;;;15.10;99.90;;;;;;5026084;28;20044;-76
2022/08/21 05:52:47;;;;;;;12.50;5.70;;;15.20;99.90;;;;;;5027120;28;20040;-76
2022/08/21 05:55:14;;;;;;;7.00;5.43;;;15.20;99.90;;;;;;5025260;28;20052;-76
2022/08/21 05:57:43;;;;;;;9.05;5.47;;;15.30;99.90;;;;;;5024743;28;20063;-76
2022/08/21 06:00:12;;;;;;;9.27;5.53;;;15.30;99.90;;;;;;5008020;28;20044;-76
2022/08/21 06:02:38;;;;;;;9.98;5.55;;;15.40;99.90;;;;;;5025304;28;21814;-76
2022/08/21 06:05:04;;;;;;;11.23;5.90;;;15.40;99.90;;;;;;5041878;28;20051;-76
2022/08/21 06:07:30;;;;;;;9.98;5.63;;;15.50;99.90;;;;;;5008953;28;20036;-76
2022/08/21 06:09:55;;;;;;;11.82;6.40;;;15.50;99.90;;;;;;5024449;28;20113;-76
2022/08/21 06:12:21;;;;;;;9.98;5.80;;;15.50;99.90;;;;;;4991708;28;20071;-76
2022/08/21 06:14:47;;;;;;;11.85;5.90;;;15.60;99.90;;;;;;5024717;28;20044;-76
2022/08/21 06:17:15;;;;;;;9.43;5.53;;;15.60;99.90;;;;;;5024576;28;20041;-76
2022/08/21 06:19:41;;;;;;;12.15;5.85;;;15.70;99.90;;;;;;5022943;28;20051;-76
2022/08/21 06:22:07;;;;;;;12.05;5.70;;;15.80;99.90;;;;;;5009623;28;20033;-76
2022/08/21 06:24:32;;;;;;;10.13;6.03;;;15.80;99.90;;;;;;5009210;28;20106;-76
2022/08/21 06:27:04;;;;;;;11.68;5.50;;;15.80;99.90;;;;;;5023873;28;20041;-76
2022/08/21 06:29:29;;;;;;;9.85;5.35;;;15.90;99.90;;;;;;5023578;28;20037;-76
2022/08/21 06:31:55;;;;;;;9.50;5.30;;;16.00;99.90;;;;;;5007624;28;20052;-76
2022/08/21 06:34:21;;;;;;;11.45;6.18;;;16.00;99.90;;;;;;5008617;28;20170;-76
2022/08/21 06:36:47;;;;;;;13.07;5.93;;;16.10;99.90;;;;;;4992756;28;20123;-76
2022/08/21 06:39:13;;;;;;;12.68;6.70;;;16.10;99.90;;;;;;4992810;28;20037;-75
2022/08/21 06:41:39;;;;;;;12.05;6.45;;;16.20;99.90;;;;;;5008339;28;20068;-76
2022/08/21 06:44:05;;;;;;;12.05;5.68;;;16.30;99.90;;;;;;4993444;28;20048;-76
2022/08/21 06:46:31;;;;;;;13.18;5.78;;;16.40;99.90;;;;;;5024444;28;20140;-76
2022/08/21 06:48:57;;;;;;;10.48;5.78;;;16.50;99.90;;;;;;5010713;28;20379;-76
2022/08/21 06:51:25;;;;;;;10.48;6.53;;;16.60;99.90;;;;;;5013328;28;20084;-76
2022/08/21 06:53:52;;;;;;;12.70;6.05;;;16.70;99.90;;;;;;5026003;28;20049;-76
2022/08/21 06:56:18;;;;;;;11.32;5.75;;;16.80;99.90;;;;;;5009867;28;20040;-76
2022/08/21 06:58:44;;;;;;;14.10;6.35;;;16.90;99.90;;;;;;5008789;28;20048;-76
2022/08/21 07:01:09;;;;;;;11.88;5.93;;;17.00;99.90;;;;;;4993826;28;20044;-76
2022/08/21 07:03:38;;;;;;;9.45;5.93;;;17.10;99.90;;;;;;5008273;28;20094;-76
2022/08/21 07:06:06;;;;;;;10.95;5.97;;;17.20;99.90;;;;;;5025396;28;20714;-76
2022/08/21 07:08:32;;;;;;;12.77;5.50;;;17.40;99.90;;;;;;5008512;28;20045;-76
2022/08/21 07:11:00;;;;;;;10.32;5.38;;;17.50;99.90;;;;;;5023863;28;20040;-76
2022/08/21 07:13:26;;;;;;;10.98;5.40;;;17.60;99.90;;;;;;5025022;28;20098;-76
2022/08/21 07:15:52;;;;;;;9.82;4.95;;;17.80;99.90;;;;;;5029326;28;20048;-76
2022/08/21 07:18:17;;;;;;;10.50;5.18;;;17.90;99.90;;;;;;5030164;28;20040;-76
2022/08/21 07:20:43;;;;;;;8.55;4.57;;;18.10;99.90;;;;;;5009310;28;20048;-76
2022/08/21 07:23:15;;;;;;;10.00;4.60;;;18.30;99.90;;;;;;5028549;28;20055;-76
2022/08/21 07:25:40;;;;;;;7.85;4.05;;;18.40;99.90;;;;;;5026487;28;20090;-76
2022/08/21 07:28:06;;;;;;;9.43;4.32;;;18.60;99.90;;;;;;5011194;28;20531;-76
2022/08/21 07:30:32;;;;;;;18.00;4.72;;;18.70;99.90;;;;;;5013570;28;20189;-76
2022/08/21 07:32:57;;;;;;;13.43;4.45;;;18.90;99.90;;;;;;5023059;28;20490;-76
2022/08/21 07:35:23;;;;;;;12.00;4.32;;;19.00;99.90;;;;;;5010716;28;20041;-77
2022/08/21 07:37:49;;;;;;;7.80;4.03;;;19.10;99.90;;;;;;4998739;28;20387;-76
2022/08/21 07:40:16;;;;;;;9.07;4.05;;;19.20;99.90;;;;;;5011384;28;20107;-76
2022/08/21 07:42:44;;;;;;;7.60;3.72;;;19.40;99.90;;;;;;4983219;28;20053;-74
2022/08/21 07:45:11;;;;;;;16.33;4.28;;;19.50;99.90;;;;;;5026880;28;20099;-74
2022/08/21 07:47:38;;;;;;;6.50;3.17;;;19.70;99.90;;;;;;5005032;28;20029;-74
2022/08/21 07:50:05;;;;;;;10.60;3.45;;;19.90;99.90;;;;;;4997331;28;20044;-72
2022/08/21 07:52:32;;;;;;;8.68;3.25;;;20.10;99.90;;;;;;5012217;28;20453;-74
2022/08/21 07:54:58;;;;;;;11.23;4.28;;;20.30;99.90;;;;;;4996657;28;20034;-75
2022/08/21 07:57:24;;;;;;;9.63;3.50;;;20.40;99.90;;;;;;5013034;28;20049;-75
2022/08/21 07:59:49;;;;;;;8.98;3.83;;;20.50;99.90;;;;;;5015060;28;20037;-76
2022/08/21 08:02:26;;;;;;;10.00;3.53;;;20.50;99.90;;;;;;4993700;28;20041;-74
2022/08/21 08:04:52;;;;;;;9.38;3.28;;;20.50;99.90;;;;;;5015029;28;20033;-74
2022/08/21 08:07:18;;;;;;;10.32;3.35;;;20.50;99.90;;;;;;4998417;28;20042;-75
2022/08/21 08:09:43;;;;;;;5.35;2.75;;;20.50;99.90;;;;;;5009575;28;20033;-74
2022/08/21 08:12:09;;;;;;;5.47;2.78;;;20.60;99.90;;;;;;4997642;28;20044;-74
2022/08/21 08:14:36;;;;;;;8.38;3.22;;;20.80;99.90;;;;;;5015748;28;20486;-74
2022/08/21 08:17:02;;;;;;;9.05;2.75;;;20.80;99.90;;;;;;5011910;28;20047;-74
2022/08/21 08:19:28;;;;;;;9.02;3.65;;;20.90;99.90;;;;;;5011148;28;20049;-74
2022/08/21 08:21:54;;;;;;;8.25;3.25;;;20.90;99.90;;;;;;5012953;28;20038;-73
2022/08/21 08:24:20;;;;;;;12.05;2.55;;;20.90;99.90;;;;;;4995860;28;20033;-74
2022/08/21 08:26:46;;;;;;;11.20;3.22;;;20.90;99.90;;;;;;5009605;28;20048;-73
2022/08/21 08:29:12;;;;;;;6.53;2.60;;;21.00;99.90;;;;;;4999581;28;20941;-73
2022/08/21 08:31:38;;;;;;;9.55;3.22;;;21.10;99.90;;;;;;4990435;28;20040;-74
2022/08/21 08:34:04;;;;;;;6.97;2.70;;;21.10;99.90;;;;;;5027768;28;21237;-74
2022/08/21 08:36:35;;;;;;;6.18;3.38;;;21.20;99.90;;;;;;5043499;28;20108;-74
2022/08/21 08:39:03;;;;;;;8.50;3.28;;;21.20;99.90;;;;;;5009512;28;20037;-74
2022/08/21 08:41:30;;;;;;;6.57;3.10;;;21.20;99.90;;;;;;5031007;28;20080;-74
2022/08/21 08:44:03;;;;;;;9.18;3.28;;;21.20;99.90;;;;;;5030602;28;20567;-74
2022/08/21 08:46:56;;;;;;;6.82;3.50;;;21.30;99.90;;;;;;5032695;28;20041;-74
2022/08/21 08:49:31;;;;;;;8.27;3.50;;;21.50;99.90;;;;;;5012901;28;21011;-74
2022/08/21 08:52:03;;;;;;;5.18;2.90;;;21.60;99.90;;;;;;5030615;28;20528;-74
2022/08/21 08:54:41;;;;;;;9.20;3.40;;;21.60;99.90;;;;;;5015288;28;20457;-75
2022/08/21 08:57:14;;;;;;;5.45;2.88;;;21.60;99.90;;;;;;5014966;28;20079;-75
2022/08/21 08:59:53;;;;;;;8.70;3.63;;;21.70;99.90;;;;;;5032170;28;20051;-75
2022/08/21 09:02:20;;;;;;;9.82;4.05;;;21.90;99.90;;;;;;5013797;28;20255;-75
2022/08/21 09:04:48;;;;;;;8.15;3.25;;;21.90;99.90;;;;;;4996839;28;20068;-75
2022/08/21 09:07:28;;;;;;;8.98;3.88;;;22.10;99.90;;;;;;5030794;28;20498;-75
2022/08/21 09:10:03;;;;;;;8.82;3.05;;;22.10;99.90;;;;;;5011661;28;20033;-75
2022/08/21 09:12:39;;;;;;;7.13;3.00;;;22.20;99.90;;;;;;5010769;28;20068;-78
2022/08/21 09:15:28;;;;;;;6.93;2.75;;;22.20;99.90;;;;;;5025902;28;20040;-78
2022/08/21 09:18:11;;;;;;;7.07;3.05;;;22.30;99.80;;;;;;5029044;28;20556;-77
2022/08/21 09:21:00;;;;;;;7.80;3.83;;;22.30;99.80;;;;;;5011864;28;20094;-78
2022/08/21 09:23:45;;;;;;;8.25;2.83;;;22.40;99.90;;;;;;5020344;28;20041;-77
2022/08/21 09:26:21;;;;;;;3.90;2.67;;;22.30;99.80;;;;;;5011184;28;21430;-76
2022/08/21 09:28:52;;;;;;;6.50;2.38;;;22.10;99.90;;;;;;5008910;28;20025;-79
2022/08/21 09:31:30;;;;;;;8.30;2.50;;;22.00;99.90;;;;;;5027198;28;20416;-78
2022/08/21 09:34:00;;;;;;;8.05;2.80;;;21.80;99.90;;;;;;5038859;28;20059;-75
2022/08/21 09:36:45;;;;;;;6.25;3.05;;;21.50;99.90;;;;;;5005247;28;20120;-76
2022/08/21 09:39:12;;;;;;;5.25;2.60;;;21.50;99.90;;;;;;5020746;28;20179;-76
2022/08/21 09:41:39;;;;;;;8.13;3.63;;;21.70;99.90;;;;;;5025320;28;20106;-78
2022/08/21 09:44:07;;;;;;;8.35;3.17;;;22.00;99.70;;;;;;4986061;28;20047;-77
2022/08/21 09:46:33;;;;;;;8.27;2.78;;;22.30;99.90;;;;;;5035946;28;20106;-77
2022/08/21 09:49:01;;;;;;;7.45;3.22;;;22.10;99.60;;;;;;5018261;28;20119;-77
2022/08/21 09:51:33;;;;;;;10.75;3.05;;;22.00;99.60;;;;;;5019226;28;20045;-76
2022/08/21 09:54:07;;;;;;;8.38;2.85;;;22.10;99.10;;;;;;5006121;28;20131;-76
2022/08/21 09:59:31;;;;;;;5.80;2.45;;;22.50;99.30;;;;;;5042913;28;20098;-75
2022/08/21 10:02:01;;;;;;;4.68;2.35;;;22.40;96.90;;;;;;5045883;28;20072;-78
2022/08/21 10:04:33;;;;;;;4.53;2.33;;;22.20;97.80;;;;;;5044810;28;21321;-75
2022/08/21 10:07:14;;;;;;;8.18;2.95;;;22.20;98.30;;;;;;5025691;28;20511;-76
2022/08/21 10:09:41;;;;;;;6.80;3.15;;;22.50;98.10;;;;;;5022825;28;20163;-75
2022/08/21 10:12:29;;;;;;;6.63;2.90;;;22.60;97.80;;;;;;5042935;28;20028;-75
2022/08/21 10:15:11;;;;;;;6.95;2.63;;;22.90;97.70;;;;;;5007671;28;20068;-77
2022/08/21 10:17:44;;;;;;;6.53;3.33;;;23.00;97.50;;;;;;5009574;28;20036;-77
2022/08/21 10:20:34;;;;;;;5.20;2.42;;;23.10;97.50;;;;;;5025258;28;20118;-77
2022/08/21 10:23:07;;;;;;;6.25;2.55;;;23.40;97.80;;;;;;5026372;28;20044;-77
2022/08/21 10:25:40;;;;;;;7.85;2.60;;;23.60;97.00;;;;;;5040267;28;20029;-77
2022/08/21 10:28:25;;;;;;;6.93;2.83;;;23.70;97.20;;;;;;5028489;28;20076;-78
2022/08/21 10:31:15;;;;;;;6.63;2.78;;;23.80;96.70;;;;;;5026530;28;20041;-77
2022/08/21 10:34:03;;;;;;;10.90;2.70;;;23.80;95.70;;;;;;5034103;28;20481;-77
2022/08/21 10:37:11;;;;;;;5.93;2.33;;;23.80;95.60;;;;;;5023245;28;20048;-78
2022/08/21 10:40:07;;;;;;;7.10;2.53;;;23.90;95.90;;;;;;5001783;28;20060;-78
2022/08/21 10:42:56;;;;;;;4.32;2.67;;;24.10;95.70;;;;;;5024413;28;20073;-77
2022/08/21 10:45:40;;;;;;;8.23;2.40;;;24.30;95.10;;;;;;5041809;28;20045;-78
2022/08/21 10:48:08;;;;;;;9.95;2.28;;;24.50;95.50;;;;;;5043267;28;20033;-77
2022/08/21 10:50:47;;;;;;;7.13;2.72;;;24.60;95.50;;;;;;5029114;28;20045;-77
2022/08/21 10:53:21;;;;;;;4.95;2.28;;;24.60;95.20;;;;;;5046516;28;20124;-77
2022/08/21 10:55:52;;;;;;;7.82;2.40;;;24.50;94.20;;;;;;5012188;28;20046;-77
2022/08/21 10:58:29;;;;;;;5.00;2.70;;;24.60;94.40;;;;;;5013892;28;20037;-77
2022/08/21 11:01:15;;;;;;;7.00;2.38;;;24.80;94.70;;;;;;5011574;28;20041;-77
2022/08/21 11:03:47;;;;;;;6.65;2.60;;;24.80;93.60;;;;;;5047441;28;20501;-77
2022/08/21 11:06:22;;;;;;;3.95;1.98;;;24.80;94.40;;;;;;5047341;28;20117;-78
2022/08/21 11:08:56;;;;;;;6.53;2.63;;;24.80;94.50;;;;;;5011296;28;20045;-75
2022/08/21 11:11:34;;;;;;;12.20;4.47;;;24.90;93.90;;;;;;5008875;28;20044;-78
2022/08/21 11:14:27;;;;;;;8.70;2.72;;;25.00;94.00;;;;;;5032854;28;20397;-76
2022/08/21 11:17:06;;;;;;;6.30;2.38;;;25.10;93.70;;;;;;5047245;28;20037;-77
2022/08/21 11:19:53;;;;;;;4.97;1.92;;;25.10;93.10;;;;;;5032201;28;20041;-75
2022/08/21 11:22:40;;;;;;;4.75;2.10;;;25.20;94.10;;;;;;5030263;28;20095;-74
2022/08/21 11:25:22;;;;;;;3.22;1.83;;;25.40;93.90;;;;;;5047313;28;20090;-74
2022/08/21 11:27:58;;;;;;;5.95;2.38;;;25.30;93.50;;;;;;5032446;28;20064;-74
2022/08/21 11:30:30;;;;;;;5.47;1.77;;;25.40;93.00;;;;;;5032264;28;20033;-75
2022/08/21 11:33:44;;;;;;;4.03;1.85;;;25.40;92.70;;;;;;5033151;28;20166;-75
2022/08/21 11:36:28;;;;;;;6.82;2.08;;;25.50;92.40;;;;;;5032516;28;20049;-75
2022/08/21 11:39:14;;;;;;;4.93;2.00;;;25.60;92.10;;;;;;5014758;28;20075;-77
2022/08/21 11:42:01;;;;;;;6.10;2.28;;;25.70;93.20;;;;;;5015060;28;20036;-75
2022/08/21 11:44:56;;;;;;;4.15;1.52;;;25.80;91.10;;;;;;5048692;28;20094;-74
2022/08/21 11:48:06;;;;;;;4.93;2.10;;;25.80;92.00;;;;;;5042212;28;20045;-77
2022/08/21 11:50:35;;;;;;;7.53;2.47;;;25.90;91.40;;;;;;4981568;28;20078;-74
2022/08/21 11:53:07;;;;;;;4.53;2.05;;;25.90;92.20;;;;;;4974404;28;20407;-75
2022/08/21 11:55:56;;;;;;;5.38;2.35;;;25.80;91.70;;;;;;5021154;28;20048;-75
2022/08/21 11:58:28;;;;;;;6.25;1.90;;;25.90;91.70;;;;;;5027156;28;20049;-78
2022/08/21 12:01:10;;;;;;;7.23;1.90;;;26.00;91.90;;;;;;5050411;28;20332;-75
2022/08/21 12:03:50;;;;;;;5.32;1.92;;;26.10;91.10;;;;;;5055628;28;20049;-75
2022/08/21 12:06:26;;;;;;;6.53;2.13;;;25.80;91.20;;;;;;5054607;28;20081;-75
2022/08/21 12:09:24;;;;;;;6.82;2.08;;;25.80;91.10;;;;;;5037347;28;20109;-74
2022/08/21 12:12:05;;;;;;;4.35;1.92;;;25.90;91.50;;;;;;5035268;28;20049;-76
2022/08/21 12:14:46;;;;;;;6.30;2.03;;;26.00;91.10;;;;;;5054826;28;22018;-77
2022/08/21 12:17:26;;;;;;;7.05;1.73;;;26.00;91.20;;;;;;5050779;28;20053;-77
2022/08/21 12:20:00;;;;;;;4.72;1.73;;;26.20;91.20;;;;;;5055109;28;20020;-74
2022/08/21 12:22:39;;;;;;;6.70;2.22;;;26.20;90.60;;;;;;5052065;28;20029;-76
2022/08/21 12:25:09;;;;;;;4.70;1.60;;;26.40;90.80;;;;;;5034583;28;20028;-76
2022/08/21 12:27:48;;;;;;;5.25;2.03;;;26.60;90.40;;;;;;5032577;28;20056;-77
2022/08/21 12:30:35;;;;;;;6.35;1.73;;;26.80;90.90;;;;;;5031723;28;20048;-75
2022/08/21 12:33:05;;;;;;;5.75;1.67;;;26.90;88.70;;;;;;5013140;28;20056;-78
2022/08/21 12:35:44;;;;;;;3.70;1.60;;;26.80;88.20;;;;;;5044103;28;20409;-77
2022/08/21 12:38:26;;;;;;;4.32;1.48;;;26.60;87.00;;;;;;5027893;28;20092;-82
2022/08/21 12:41:06;;;;;;;7.10;1.98;;;26.60;89.00;;;;;;5026519;28;20059;-76
2022/08/21 12:43:40;;;;;;;4.38;1.75;;;26.60;88.40;;;;;;5011545;28;20559;-75
2022/08/21 12:46:18;;;;;;;5.57;2.00;;;26.80;90.30;;;;;;5008481;28;20041;-77
2022/08/21 12:48:56;;;;;;;5.63;1.85;;;26.60;88.90;;;;;;5027493;28;20069;-75
2022/08/21 12:51:45;;;;;;;4.43;1.88;;;26.30;88.30;;;;;;5026523;28;20037;-75
2022/08/21 12:54:24;;;;;;;4.93;1.60;;;26.10;89.10;;;;;;5027521;28;20527;-79
2022/08/21 12:57:05;;;;;;;4.18;1.63;;;25.90;90.20;;;;;;5026677;28;20041;-78
2022/08/21 12:59:36;;;;;;;6.18;2.03;;;25.70;90.10;;;;;;5028082;28;20045;-78
2022/08/21 13:02:04;;;;;;;5.38;1.70;;;25.50;90.60;;;;;;5023153;28;20053;-75